Time;durP1;ratioP1;P1;durP2;ratioP2;P2;SDS_P1;SDS_P2;PMS_P1;PMS_P2;Temp;Humidity;BMP_temperature;BMP_pressure;BME280_temperature;BME280_humidity;BME280_pressure;Samples;Min_cycle;Max_cycle;Signal;HPM_P1;HPM_P2
2022/11/14 00:00:20;;;;;;;;;;;;;;;14.11;47.81;100242.50;4495454;31;33531;-87
2022/11/14 00:03:06;;;;;;;;;;;;;;;14.06;47.62;100245.03;4486356;31;34811;-85
2022/11/14 00:05:53;;;;;;;;;;;;;;;14.64;46.59;100231.97;4474888;31;33862;-85
2022/11/14 00:08:38;;;;;;;;;;;;;;;14.92;46.04;100225.38;4490145;31;32892;-91
2022/11/14 00:11:24;;;;;;;;;;;;;;;14.50;46.41;100220.47;4485828;31;33392;-90
2022/11/14 00:14:10;;;;;;;;;;;;;;;14.59;45.97;100224.09;4482685;31;34420;-92
2022/11/14 00:16:55;;;;;;;;;;;;;;;14.45;46.37;100220.37;4489297;31;34463;-94
2022/11/14 00:19:41;;;;;;;;;;;;;;;14.70;45.98;100228.56;4499098;31;34788;-94
2022/11/14 00:22:27;;;;;;;;;;;;;;;14.78;46.03;100230.44;4497373;31;33421;-93
2022/11/14 00:25:12;;;;;;;;;;;;;;;14.85;45.94;100228.78;4492353;31;35082;-87
2022/11/14 00:27:58;;;;;;;;;;;;;;;15.08;45.51;100229.94;4498595;31;33859;-86
2022/11/14 00:30:47;;;;;;;;;;;;;;;15.17;45.53;100216.09;4492560;31;34206;-93
2022/11/14 00:33:33;;;;;;;;;;;;;;;15.32;45.36;100234.53;4476052;31;34188;-91
2022/11/14 00:36:19;;;;;;;;;;;;;;;15.32;45.01;100233.66;4484828;31;35161;-92
2022/11/14 00:39:04;;;;;;;;;;;;;;;15.14;45.32;100223.87;4483765;31;34215;-90
2022/11/14 00:41:50;;;;;;;;;;;;;;;15.21;45.20;100217.00;4488271;31;32621;-87
2022/11/14 00:44:36;;;;;;;;;;;;;;;15.05;45.30;100232.50;4483546;31;33128;-91
2022/11/14 00:47:22;;;;;;;;;;;;;;;15.24;44.84;100224.88;4483479;31;34734;-93
2022/11/14 00:50:08;;;;;;;;;;;;;;;14.73;45.76;100224.25;4487597;31;34910;-85
2022/11/14 00:52:54;;;;;;;;;;;;;;;14.85;45.48;100234.00;4498210;31;35225;-87
2022/11/14 00:55:40;;;;;;;;;;;;;;;15.14;44.98;100231.72;4499032;31;33811;-88
2022/11/14 00:58:25;;;;;;;;;;;;;;;15.03;45.21;100228.09;4499577;31;34243;-92
2022/11/14 01:01:11;;;;;;;;;;;;;;;14.95;44.83;100227.16;4499846;31;34390;-88
2022/11/14 01:03:57;;;;;;;;;;;;;;;15.15;43.97;100220.41;4504639;31;33678;-93
2022/11/14 01:06:43;;;;;;;;;;;;;;;15.05;44.28;100226.41;4499447;31;33595;-91
2022/11/14 01:09:29;;;;;;;;;;;;;;;15.05;44.40;100218.56;4498876;31;35009;-86
2022/11/14 01:12:15;;;;;;;;;;;;;;;15.13;44.17;100218.66;4498767;31;34538;-92
2022/11/14 01:15:00;;;;;;;;;;;;;;;15.09;44.06;100207.28;4499880;31;34012;-85
2022/11/14 01:17:46;;;;;;;;;;;;;;;15.21;43.59;100204.81;4499090;31;33477;-87
2022/11/14 01:20:32;;;;;;;;;;;;;;;15.03;43.82;100196.78;4499462;31;34160;-92
2022/11/14 01:23:18;;;;;;;;;;;;;;;14.95;43.80;100203.66;4499032;31;35186;-92
2022/11/14 01:26:07;;;;;;;;;;;;;;;14.31;44.75;100199.31;4510282;31;34867;-88
2022/11/14 01:28:53;;;;;;;;;;;;;;;14.60;44.65;100199.75;4506534;31;33561;-89
2022/11/14 01:31:38;;;;;;;;;;;;;;;14.96;43.85;100206.25;4514851;31;35136;-86
2022/11/14 01:34:25;;;;;;;;;;;;;;;14.70;44.47;100199.84;4507196;31;35348;-85
2022/11/14 01:37:10;;;;;;;;;;;;;;;14.49;44.75;100201.34;4499190;31;34919;-88
2022/11/14 01:39:56;;;;;;;;;;;;;;;14.63;44.70;100198.91;4498538;31;32712;-92
2022/11/14 01:42:42;;;;;;;;;;;;;;;14.67;44.58;100192.87;4499014;31;35195;-85
2022/11/14 01:45:46;;;;;;;;;;;;;;;14.66;44.43;100185.00;4499470;31;34333;-87
2022/11/14 01:48:31;;;;;;;;;;;;;;;14.60;44.58;100191.03;4497520;31;33655;-92
2022/11/14 01:51:35;;;;;;;;;;;;;;;14.45;45.10;100185.59;4502370;31;32856;-86
2022/11/14 01:54:28;;;;;;;;;;;;;;;14.61;44.86;100177.13;4499083;31;34076;-93
2022/11/14 01:57:14;;;;;;;;;;;;;;;14.78;44.77;100175.63;4499277;31;34131;-91
2022/11/14 02:00:01;;;;;;;;;;;;;;;14.56;45.01;100177.09;4499480;31;33649;-91
2022/11/14 02:02:46;;;;;;;;;;;;;;;14.40;45.48;100179.44;4509415;31;33514;-92
2022/11/14 02:05:32;;;;;;;;;;;;;;;14.71;44.67;100172.91;4499242;31;32827;-87
2022/11/14 02:08:17;;;;;;;;;;;;;;;14.87;44.90;100180.06;4512527;31;34402;-91
2022/11/14 02:11:03;;;;;;;;;;;;;;;14.75;45.34;100172.09;4514772;31;34792;-89
2022/11/14 02:13:49;;;;;;;;;;;;;;;14.28;46.20;100182.75;4516340;31;33049;-88
2022/11/14 02:16:34;;;;;;;;;;;;;;;14.45;45.71;100176.03;4501090;31;33920;-87
2022/11/14 02:19:20;;;;;;;;;;;;;;;14.74;45.41;100180.78;4504062;31;34899;-87
2022/11/14 02:22:06;;;;;;;;;;;;;;;14.55;45.90;100172.72;4515887;31;34011;-92
2022/11/14 02:24:51;;;;;;;;;;;;;;;14.90;45.18;100180.09;4506118;31;33216;-89
2022/11/14 02:27:37;;;;;;;;;;;;;;;15.02;44.83;100180.22;4515672;31;33909;-86
2022/11/14 02:30:23;;;;;;;;;;;;;;;14.93;44.81;100171.44;4509035;31;34244;-87
2022/11/14 02:33:08;;;;;;;;;;;;;;;15.01;44.49;100180.22;4513806;31;34203;-92
2022/11/14 02:35:55;;;;;;;;;;;;;;;14.82;44.77;100173.91;4515314;31;34242;-88
2022/11/14 02:38:41;;;;;;;;;;;;;;;14.95;44.66;100178.41;4515145;31;33690;-86
2022/11/14 02:41:27;;;;;;;;;;;;;;;15.00;44.49;100179.34;4509966;31;35289;-93
2022/11/14 02:44:13;;;;;;;;;;;;;;;14.91;44.75;100173.13;4514623;31;34137;-92
2022/11/14 02:46:59;;;;;;;;;;;;;;;14.75;45.11;100175.56;4515207;31;34167;-86
2022/11/14 02:49:44;;;;;;;;;;;;;;;14.42;45.63;100181.19;4515548;31;35233;-94
2022/11/14 02:52:30;;;;;;;;;;;;;;;14.91;44.87;100176.63;4506084;31;34859;-92
2022/11/14 02:55:15;;;;;;;;;;;;;;;14.99;44.62;100174.97;4501958;31;33483;-87
2022/11/14 02:58:01;;;;;;;;;;;;;;;13.85;47.23;100174.28;4508431;31;33973;-87
2022/11/14 03:00:46;;;;;;;;;;;;;;;14.32;45.98;100168.91;4504915;31;34960;-87
2022/11/14 03:03:52;;;;;;;;;;;;;;;14.87;45.04;100172.22;4500061;31;33774;-87
2022/11/14 03:06:38;;;;;;;;;;;;;;;14.97;44.87;100174.09;4499746;31;34066;-87
2022/11/14 03:09:24;;;;;;;;;;;;;;;15.06;44.93;100171.56;4511195;31;33702;-87
2022/11/14 03:12:10;;;;;;;;;;;;;;;14.98;45.28;100172.34;4508699;31;35068;-91
2022/11/14 03:14:55;;;;;;;;;;;;;;;14.50;46.28;100166.56;4503585;31;34274;-93
2022/11/14 03:17:41;;;;;;;;;;;;;;;14.28;47.21;100168.00;4515924;31;33849;-86
2022/11/14 03:20:27;;;;;;;;;;;;;;;14.01;47.91;100164.97;4506800;31;33223;-92
2022/11/14 03:23:13;;;;;;;;;;;;;;;13.78;48.63;100167.22;4513243;31;34036;-92
2022/11/14 03:26:02;;;;;;;;;;;;;;;14.02;47.97;100164.12;4501931;31;34407;-86
2022/11/14 03:28:48;;;;;;;;;;;;;;;14.41;47.25;100163.81;4509752;31;34865;-92
2022/11/14 03:31:33;;;;;;;;;;;;;;;14.14;47.72;100163.44;4502145;31;32881;-92
2022/11/14 03:34:19;;;;;;;;;;;;;;;14.19;47.48;100156.53;4514189;31;33800;-92
2022/11/14 03:37:05;;;;;;;;;;;;;;;14.27;47.46;100154.91;4509206;31;34334;-90
2022/11/14 03:39:52;;;;;;;;;;;;;;;13.99;47.86;100154.53;4515678;31;33659;-86
2022/11/14 03:42:41;;;;;;;;;;;;;;;14.77;46.21;100153.00;4499657;31;32888;-91
2022/11/14 03:45:26;;;;;;;;;;;;;;;14.51;46.75;100157.88;4508484;31;33766;-92
2022/11/14 03:48:12;;;;;;;;;;;;;;;14.41;46.67;100153.38;4504002;31;34450;-86
2022/11/14 03:50:58;;;;;;;;;;;;;;;14.36;46.89;100155.91;4498225;31;34986;-89
2022/11/14 03:53:44;;;;;;;;;;;;;;;14.26;46.93;100153.16;4505515;31;33026;-87
2022/11/14 03:56:29;;;;;;;;;;;;;;;13.47;49.09;100155.44;4501310;31;33924;-89
2022/11/14 03:59:15;;;;;;;;;;;;;;;13.73;48.62;100155.87;4514931;31;34356;-88
2022/11/14 04:02:01;;;;;;;;;;;;;;;13.69;48.30;100152.31;4511786;31;34090;-91
2022/11/14 04:04:47;;;;;;;;;;;;;;;14.05;47.65;100149.41;4515247;31;33522;-87
2022/11/14 04:07:32;;;;;;;;;;;;;;;14.03;47.66;100145.91;4507837;31;34860;-92
2022/11/14 04:10:18;;;;;;;;;;;;;;;13.51;49.29;100144.22;4499676;31;34049;-88
2022/11/14 04:13:04;;;;;;;;;;;;;;;13.36;49.30;100156.13;4499944;31;35068;-87
2022/11/14 04:15:53;;;;;;;;;;;;;;;13.60;48.84;100142.66;4510839;31;33563;-93
2022/11/14 04:18:39;;;;;;;;;;;;;;;13.61;48.79;100146.13;4500007;31;34385;-93
2022/11/14 04:21:25;;;;;;;;;;;;;;;13.66;48.44;100141.84;4503525;31;34139;-93
2022/11/14 04:24:10;;;;;;;;;;;;;;;12.44;50.97;100148.25;4499437;31;33737;-93
2022/11/14 04:26:56;;;;;;;;;;;;;;;12.28;52.35;100147.06;4502045;31;34338;-94
2022/11/14 04:29:42;;;;;;;;;;;;;;;12.68;51.08;100141.78;4501234;31;33950;-88
2022/11/14 04:32:28;;;;;;;;;;;;;;;11.89;52.41;100144.44;4514522;31;34882;-87
2022/11/14 04:35:14;;;;;;;;;;;;;;;11.96;51.66;100135.06;4514621;31;34845;-88
2022/11/14 04:38:00;;;;;;;;;;;;;;;12.66;49.92;100129.63;4508248;31;33523;-91
2022/11/14 04:40:49;;;;;;;;;;;;;;;12.24;51.27;100134.84;4514034;31;34018;-94
2022/11/14 04:43:35;;;;;;;;;;;;;;;13.21;48.98;100126.31;4514539;31;34291;-87
2022/11/14 04:46:21;;;;;;;;;;;;;;;12.76;49.87;100124.59;4514869;31;34784;-87
2022/11/14 04:49:07;;;;;;;;;;;;;;;13.30;48.55;100114.38;4499341;31;33411;-94
2022/11/14 04:51:52;;;;;;;;;;;;;;;13.15;48.25;100114.94;4502099;31;34190;-88
2022/11/14 04:54:38;;;;;;;;;;;;;;;12.63;49.60;100115.69;4509445;31;35223;-91
2022/11/14 04:57:24;;;;;;;;;;;;;;;12.94;48.87;100117.16;4504174;31;34099;-91
2022/11/14 05:00:10;;;;;;;;;;;;;;;13.20;48.38;100107.19;4510123;31;33322;-86
2022/11/14 05:02:57;;;;;;;;;;;;;;;13.22;48.46;100100.31;4502482;31;34045;-90
2022/11/14 05:05:43;;;;;;;;;;;;;;;13.46;47.71;100099.84;4498604;31;33976;-91
2022/11/14 05:08:28;;;;;;;;;;;;;;;13.21;48.24;100103.75;4504733;31;33836;-91
2022/11/14 05:11:15;;;;;;;;;;;;;;;13.19;48.36;100102.84;4501252;31;33017;-91
2022/11/14 05:14:01;;;;;;;;;;;;;;;13.41;47.99;100095.41;4511079;31;35158;-87
2022/11/14 05:16:47;;;;;;;;;;;;;;;13.39;47.88;100087.59;4513344;31;34406;-92
2022/11/14 05:19:32;;;;;;;;;;;;;;;12.29;50.26;100098.53;4509620;31;34879;-87
2022/11/14 05:22:18;;;;;;;;;;;;;;;12.96;49.29;100102.44;4514207;31;32890;-87
2022/11/14 05:25:05;;;;;;;;;;;;;;;12.54;49.76;100108.59;4510874;31;33566;-86
2022/11/14 05:27:50;;;;;;;;;;;;;;;13.41;48.21;100103.22;4498950;31;33838;-86
2022/11/14 05:30:36;;;;;;;;;;;;;;;13.47;47.84;100104.22;4508574;31;34253;-93
2022/11/14 05:33:22;;;;;;;;;;;;;;;13.55;47.45;100099.13;4510648;31;34070;-93
2022/11/14 05:36:08;;;;;;;;;;;;;;;13.20;47.84;100093.31;4503560;31;34822;-93
2022/11/14 05:38:54;;;;;;;;;;;;;;;13.57;47.49;100106.13;4504362;31;34314;-87
2022/11/14 05:41:40;;;;;;;;;;;;;;;13.00;48.46;100104.25;4513502;31;33608;-93
2022/11/14 05:44:26;;;;;;;;;;;;;;;13.51;47.43;100098.19;4508232;31;34212;-91
2022/11/14 05:47:12;;;;;;;;;;;;;;;13.48;47.45;100097.25;4507423;31;35229;-86
2022/11/14 05:49:57;;;;;;;;;;;;;;;13.46;47.56;100094.66;4503389;31;35239;-87
2022/11/14 05:52:43;;;;;;;;;;;;;;;12.67;49.46;100109.69;4502729;31;34924;-89
2022/11/14 05:55:31;;;;;;;;;;;;;;;13.55;47.63;100105.19;4508886;31;32961;-86
2022/11/14 05:58:17;;;;;;;;;;;;;;;13.71;47.44;100102.81;4501615;31;34543;-89
2022/11/14 06:01:04;;;;;;;;;;;;;;;13.89;47.09;100103.09;4505300;31;33865;-89
2022/11/14 06:03:49;;;;;;;;;;;;;;;14.19;46.50;100104.38;4506753;31;34500;-87
2022/11/14 06:06:35;;;;;;;;;;;;;;;13.71;47.96;100102.81;4499419;31;32941;-89
2022/11/14 06:09:21;;;;;;;;;;;;;;;14.20;46.76;100108.72;4507303;31;33616;-87
2022/11/14 06:12:07;;;;;;;;;;;;;;;14.16;46.95;100113.03;4510652;31;34339;-88
2022/11/14 06:14:53;;;;;;;;;;;;;;;13.26;49.83;100111.66;4500074;31;34328;-89
2022/11/14 06:17:38;;;;;;;;;;;;;;;12.36;52.51;100129.03;4496843;31;33135;-86
2022/11/14 06:20:24;;;;;;;;;;;;;;;12.99;50.92;100133.72;4504124;31;33434;-93
2022/11/14 06:23:10;;;;;;;;;;;;;;;13.50;49.61;100126.84;4496037;31;34157;-88
2022/11/14 06:25:59;;;;;;;;;;;;;;;13.82;48.97;100140.34;4496509;31;34502;-90
2022/11/14 06:28:45;;;;;;;;;;;;;;;13.03;50.06;100130.34;4501088;31;34190;-89
2022/11/14 06:31:30;;;;;;;;;;;;;;;13.57;49.32;100124.34;4511888;31;34292;-88
2022/11/14 06:34:16;;;;;;;;;;;;;;;13.35;50.10;100127.44;4504996;31;34354;-88
2022/11/14 06:37:03;;;;;;;;;;;;;;;13.80;48.66;100129.91;4498207;31;34344;-87
2022/11/14 06:39:49;;;;;;;;;;;;;;;14.08;48.46;100127.69;4498486;31;34051;-88
2022/11/14 06:42:34;;;;;;;;;;;;;;;12.80;51.76;100142.03;4510776;31;34125;-87
2022/11/14 06:45:20;;;;;;;;;;;;;;;13.07;52.38;100139.97;4515638;31;35478;-87
2022/11/14 06:48:06;;;;;;;;;;;;;;;12.85;53.34;100140.41;4516164;31;33535;-88
2022/11/14 06:50:55;;;;;;;;;;;;;;;12.50;54.64;100145.81;4507638;31;35806;-91
2022/11/14 06:53:41;;;;;;;;;;;;;;;12.06;55.96;100140.50;4503642;31;34965;-87
2022/11/14 06:56:27;;;;;;;;;;;;;;;12.39;55.08;100144.69;4511427;31;35087;-90
2022/11/14 06:59:13;;;;;;;;;;;;;;;12.93;53.03;100149.25;4506298;31;33865;-90
2022/11/14 07:01:58;;;;;;;;;;;;;;;13.78;51.11;100143.78;4500078;31;33757;-88
2022/11/14 07:04:45;;;;;;;;;;;;;;;14.24;49.67;100142.69;4499829;31;34366;-91
2022/11/14 07:07:31;;;;;;;;;;;;;;;14.36;49.26;100137.66;4503793;31;35344;-88
2022/11/14 07:10:16;;;;;;;;;;;;;;;14.62;48.61;100136.25;4500095;31;34600;-87
2022/11/14 07:13:02;;;;;;;;;;;;;;;14.70;48.39;100139.81;4499843;31;34323;-94
2022/11/14 07:15:51;;;;;;;;;;;;;;;13.94;50.35;100135.34;4513059;31;35174;-91
2022/11/14 07:18:37;;;;;;;;;;;;;;;14.15;50.37;100139.97;4504240;31;34406;-87
2022/11/14 07:21:23;;;;;;;;;;;;;;;13.20;53.06;100140.19;4516101;31;34207;-87
2022/11/14 07:24:09;;;;;;;;;;;;;;;14.04;50.74;100132.00;4515796;31;33161;-88
2022/11/14 07:26:54;;;;;;;;;;;;;;;14.08;50.52;100128.56;4515694;31;34234;-90
2022/11/14 07:29:41;;;;;;;;;;;;;;;14.17;50.05;100132.16;4513632;31;35352;-86
2022/11/14 07:32:27;;;;;;;;;;;;;;;14.36;49.09;100135.06;4500538;31;35197;-87
2022/11/14 07:35:13;;;;;;;;;;;;;;;14.64;48.40;100137.16;4499885;31;34144;-90
2022/11/14 07:37:59;;;;;;;;;;;;;;;14.62;48.33;100133.62;4499773;31;35130;-87
2022/11/14 07:40:52;;;;;;;;;;;;;;;14.86;47.82;100131.31;4506676;31;34202;-94
2022/11/14 07:43:44;;;;;;;;;;;;;;;15.37;46.85;100132.69;4515772;31;35018;-88
2022/11/14 07:46:30;;;;;;;;;;;;;;;15.19;47.23;100129.88;4500422;31;33589;-87
2022/11/14 07:49:16;;;;;;;;;;;;;;;15.33;46.92;100133.50;4499892;31;33947;-87
2022/11/14 07:52:02;;;;;;;;;;;;;;;15.09;47.56;100124.59;4506208;31;34132;-87
2022/11/14 07:54:48;;;;;;;;;;;;;;;14.50;49.06;100132.63;4515632;31;34064;-89
2022/11/14 07:57:34;;;;;;;;;;;;;;;14.50;49.26;100137.84;4515423;31;34323;-87
2022/11/14 08:00:26;;;;;;;;;;;;;;;13.85;51.51;100141.28;4515810;31;35339;-87
2022/11/14 08:03:12;;;;;;;;;;;;;;;14.78;49.38;100132.97;4515695;31;35327;-87
2022/11/14 08:06:05;;;;;;;;;;;;;;;14.48;50.34;100126.50;4515745;31;33590;-90
2022/11/14 08:08:50;;;;;;;;;;;;;;;14.37;50.64;100128.09;4515677;31;33126;-94
2022/11/14 08:11:48;;;;;;;;;;;;;;;13.66;53.14;100127.94;4515736;31;34484;-94
2022/11/14 08:14:34;;;;;;;;;;;;;;;13.81;52.67;100122.97;4515375;31;34713;-87
2022/11/14 08:17:20;;;;;;;;;;;;;;;13.88;52.31;100130.03;4515512;31;33860;-90
2022/11/14 08:20:06;;;;;;;;;;;;;;;14.31;51.34;100125.41;4514489;31;33029;-90
2022/11/14 08:22:52;;;;;;;;;;;;;;;14.78;50.17;100122.53;4503820;31;33945;-87
2022/11/14 08:25:38;;;;;;;;;;;;;;;14.71;50.17;100120.72;4514408;31;34057;-85
2022/11/14 08:28:24;;;;;;;;;;;;;;;14.68;50.36;100123.28;4515286;31;33753;-88
2022/11/14 08:31:10;;;;;;;;;;;;;;;15.09;49.43;100116.75;4500369;31;33463;-87
2022/11/14 08:33:55;;;;;;;;;;;;;;;14.18;50.58;100115.69;4499523;31;35051;-88
2022/11/14 08:36:41;;;;;;;;;;;;;;;13.33;53.05;100118.72;4499208;31;34564;-88
2022/11/14 08:39:27;;;;;;;;;;;;;;;13.66;53.01;100117.53;4499248;31;34341;-93
2022/11/14 08:42:12;;;;;;;;;;;;;;;13.59;51.93;100117.41;4474798;31;784191;-92
2022/11/14 08:44:58;;;;;;;;;;;;;;;13.19;53.76;100113.28;4499551;31;34153;-92
2022/11/14 08:47:49;;;;;;;;;;;;;;;13.33;53.60;100113.50;4499803;31;34487;-86
2022/11/14 08:50:35;;;;;;;;;;;;;;;13.26;53.80;100107.34;4499271;31;34002;-88
2022/11/14 08:53:20;;;;;;;;;;;;;;;13.04;54.56;100108.66;4509109;31;33462;-92
2022/11/14 08:56:07;;;;;;;;;;;;;;;12.33;56.63;100114.22;4515118;31;34041;-88
2022/11/14 08:58:53;;;;;;;;;;;;;;;12.48;56.69;100103.25;4510982;31;34510;-93
2022/11/14 09:01:38;;;;;;;;;;;;;;;12.23;56.83;100111.41;4499311;31;34205;-94
2022/11/14 09:04:24;;;;;;;;;;;;;;;12.74;55.95;100105.50;4498819;31;33238;-87
2022/11/14 09:07:10;;;;;;;;;;;;;;;13.31;54.71;100104.81;4499410;31;34123;-87
2022/11/14 09:09:56;;;;;;;;;;;;;;;13.15;55.21;100106.25;4498954;31;34153;-92
2022/11/14 09:12:41;;;;;;;;;;;;;;;13.87;53.49;100110.03;4499134;31;34714;-93
2022/11/14 09:15:27;;;;;;;;;;;;;;;13.23;55.02;100111.59;4499260;31;34149;-94
2022/11/14 09:18:14;;;;;;;;;;;;;;;13.41;54.06;100106.72;4499207;31;34440;-88
2022/11/14 09:21:00;;;;;;;;;;;;;;;13.95;53.14;100105.81;4499185;31;35144;-93
2022/11/14 09:23:46;;;;;;;;;;;;;;;13.21;54.70;100102.88;4498933;31;35215;-86
2022/11/14 09:26:32;;;;;;;;;;;;;;;13.58;54.04;100110.47;4499231;31;34246;-87
2022/11/14 09:29:17;;;;;;;;;;;;;;;14.21;52.44;100107.91;4499772;31;34021;-87
2022/11/14 09:32:03;;;;;;;;;;;;;;;14.35;51.58;100101.97;4498883;31;35320;-86
2022/11/14 09:34:49;;;;;;;;;;;;;;;13.66;53.67;100104.50;4498983;31;33699;-93
2022/11/14 09:37:35;;;;;;;;;;;;;;;13.78;52.90;100097.72;4499009;31;33320;-85
2022/11/14 09:40:21;;;;;;;;;;;;;;;13.81;53.02;100094.31;4498849;31;34161;-94
2022/11/14 09:43:09;;;;;;;;;;;;;;;14.16;52.05;100093.91;4498734;31;34348;-90
2022/11/14 09:45:55;;;;;;;;;;;;;;;14.34;51.91;100083.72;4498690;31;35108;-89
2022/11/14 09:48:41;;;;;;;;;;;;;;;14.16;52.07;100086.09;4497733;31;34256;-93
2022/11/14 09:51:38;;;;;;;;;;;;;;;14.82;50.73;100080.81;4497397;31;35201;-91
2022/11/14 09:54:25;;;;;;;;;;;;;;;14.28;51.87;100076.69;4502185;31;35195;-93
2022/11/14 09:57:14;;;;;;;;;;;;;;;14.92;50.54;100079.16;4514553;31;34300;-86
2022/11/14 10:00:00;;;;;;;;;;;;;;;14.68;51.59;100074.56;4513279;31;32732;-87
2022/11/14 10:02:51;;;;;;;;;;;;;;;15.60;49.20;100064.91;4512733;31;34167;-88
2022/11/14 10:05:37;;;;;;;;;;;;;;;15.43;49.13;100061.31;4513368;31;33846;-87
2022/11/14 10:08:22;;;;;;;;;;;;;;;15.86;48.13;100070.34;4513644;31;34365;-86
2022/11/14 10:11:11;;;;;;;;;;;;;;;16.07;47.71;100061.75;4498600;31;33860;-94
2022/11/14 10:14:15;;;;;;;;;;;;;;;15.40;49.05;100051.72;4498601;31;34489;-87
2022/11/14 10:17:06;;;;;;;;;;;;;;;14.81;50.71;100063.41;4499757;31;34474;-89
2022/11/14 10:20:03;;;;;;;;;;;;;;;15.36;49.88;100049.94;4501163;31;34268;-87
2022/11/14 10:23:01;;;;;;;;;;;;;;;15.03;50.35;100043.56;4499458;31;34168;-90
2022/11/14 10:25:49;;;;;;;;;;;;;;;14.76;50.75;100040.72;4499251;31;34947;-95
2022/11/14 10:28:41;;;;;;;;;;;;;;;15.31;49.25;100038.59;4500471;31;34236;-87
2022/11/14 10:31:36;;;;;;;;;;;;;;;15.32;49.52;100032.50;4500405;31;34864;-87
2022/11/14 10:34:33;;;;;;;;;;;;;;;14.87;50.28;100032.97;4499340;31;33309;-87
2022/11/14 10:37:21;;;;;;;;;;;;;;;15.11;49.82;100032.31;4499067;31;34079;-88
2022/11/14 10:40:14;;;;;;;;;;;;;;;14.56;51.26;100036.16;4499178;31;34033;-91
2022/11/14 10:43:02;;;;;;;;;;;;;;;14.22;51.71;100024.44;4509740;31;34116;-88
2022/11/14 10:45:53;;;;;;;;;;;;;;;15.24;50.41;100026.34;4499812;31;33340;-95
2022/11/14 10:48:39;;;;;;;;;;;;;;;16.00;48.66;100021.59;4500387;31;34855;-94
2022/11/14 10:51:38;;;;;;;;;;;;;;;15.51;49.01;100018.69;4498749;31;35186;-87
2022/11/14 10:54:32;;;;;;;;;;;;;;;15.74;48.68;100010.13;4499950;31;34953;-87
2022/11/14 10:57:19;;;;;;;;;;;;;;;16.42;47.01;99999.06;4499202;31;33085;-94
2022/11/14 11:00:09;;;;;;;;;;;;;;;16.46;46.89;100007.81;4500965;31;34241;-88
2022/11/14 11:02:55;;;;;;;;;;;;;;;16.21;47.06;100001.59;4499111;31;33901;-88
2022/11/14 11:05:45;;;;;;;;;;;;;;;15.97;47.54;100005.88;4500131;31;34016;-95
2022/11/14 11:11:40;;;;;;;;;;;;;;;16.54;46.21;99993.84;4499935;31;35106;-91
2022/11/14 11:14:25;;;;;;;;;;;;;;;16.36;46.30;99991.19;4500268;31;34028;-87
2022/11/14 11:17:11;;;;;;;;;;;;;;;16.53;46.48;99986.88;4499305;31;34176;-91
2022/11/14 11:19:57;;;;;;;;;;;;;;;16.44;46.26;99986.88;4499763;31;32958;-94
2022/11/14 11:22:47;;;;;;;;;;;;;;;16.86;45.31;99976.44;4498986;31;35086;-95
2022/11/14 11:25:33;;;;;;;;;;;;;;;16.73;45.26;99970.31;4499052;31;33893;-88
2022/11/14 11:28:19;;;;;;;;;;;;;;;16.60;45.92;99973.81;4498496;31;34258;-95
2022/11/14 11:31:06;;;;;;;;;;;;;;;16.67;45.58;99965.09;4500616;31;33567;-92
2022/11/14 11:33:52;;;;;;;;;;;;;;;16.49;46.98;99965.94;4513157;31;34199;-94
2022/11/14 11:36:39;;;;;;;;;;;;;;;16.80;46.07;99966.00;4514431;31;34358;-94
2022/11/14 11:39:28;;;;;;;;;;;;;;;16.04;47.22;99963.19;4513413;31;34206;-86
2022/11/14 11:42:15;;;;;;;;;;;;;;;15.93;47.72;99961.41;4516206;31;33099;-94
2022/11/14 11:45:01;;;;;;;;;;;;;;;16.59;46.91;99957.19;4515908;31;35163;-87
2022/11/14 11:47:56;;;;;;;;;;;;;;;16.52;47.15;99951.09;4514715;31;35341;-94
2022/11/14 11:50:42;;;;;;;;;;;;;;;16.99;46.12;99952.88;4514312;31;34073;-91
2022/11/14 11:53:28;;;;;;;;;;;;;;;17.15;46.04;99952.88;4515901;31;33220;-91
2022/11/14 11:56:16;;;;;;;;;;;;;;;17.06;45.47;99950.28;4514454;31;34174;-86
2022/11/14 11:59:22;;;;;;;;;;;;;;;17.13;45.29;99944.16;4515277;31;34373;-94
2022/11/14 12:02:28;;;;;;;;;;;;;;;17.12;45.87;99943.28;4512987;31;33647;-94
2022/11/14 12:05:17;;;;;;;;;;;;;;;17.71;44.89;99934.38;4515396;31;33496;-94
2022/11/14 12:08:08;;;;;;;;;;;;;;;17.23;45.29;99924.91;4511700;31;35102;-87
2022/11/14 12:10:54;;;;;;;;;;;;;;;17.66;44.82;99927.41;4515717;31;34319;-94
2022/11/14 12:13:43;;;;;;;;;;;;;;;16.87;45.97;99918.84;4514143;31;34371;-95
2022/11/14 12:16:47;;;;;;;;;;;;;;;16.49;46.88;99909.22;4515526;31;34213;-88
2022/11/14 12:19:33;;;;;;;;;;;;;;;17.26;45.86;99909.16;4513955;31;34810;-95
2022/11/14 12:22:37;;;;;;;;;;;;;;;17.47;44.58;99910.88;4508933;31;34360;-93
2022/11/14 12:25:43;;;;;;;;;;;;;;;17.13;45.52;99902.22;4499777;31;34528;-95
2022/11/14 12:28:28;;;;;;;;;;;;;;;17.24;45.53;99892.59;4498503;31;33430;-87
2022/11/14 12:31:15;;;;;;;;;;;;;;;16.78;46.81;99896.16;4499845;31;34145;-87
2022/11/14 12:34:02;;;;;;;;;;;;;;;17.31;45.90;99899.53;4498460;31;33689;-92
2022/11/14 12:36:48;;;;;;;;;;;;;;;17.31;45.49;99886.44;4498239;31;34922;-87
2022/11/14 12:39:33;;;;;;;;;;;;;;;17.21;45.62;99887.37;4497725;31;33369;-87
2022/11/14 12:42:19;;;;;;;;;;;;;;;17.75;44.04;99882.81;4501290;31;34006;-92
2022/11/14 12:45:25;;;;;;;;;;;;;;;17.06;45.75;99879.53;4498469;31;33900;-87
2022/11/14 12:48:14;;;;;;;;;;;;;;;17.22;45.64;99881.22;4481022;31;34646;-88
2022/11/14 12:51:00;;;;;;;;;;;;;;;16.93;46.04;99876.94;4499694;31;32918;-92
2022/11/14 12:53:45;;;;;;;;;;;;;;;16.28;47.54;99880.41;4498231;31;33659;-88
2022/11/14 12:56:31;;;;;;;;;;;;;;;16.73;46.62;99873.44;4499291;31;34212;-87
2022/11/14 12:59:42;;;;;;;;;;;;;;;16.82;47.16;99876.09;4510466;31;33851;-87
2022/11/14 13:02:31;;;;;;;;;;;;;;;17.47;45.54;99877.66;4498731;31;33959;-87
2022/11/14 13:05:33;;;;;;;;;;;;;;;17.37;45.08;99865.47;4515048;31;34670;-87
2022/11/14 13:08:25;;;;;;;;;;;;;;;17.04;44.99;99866.41;4514116;31;34365;-94
2022/11/14 13:21:44;;;;;;;;;;;;;;;17.55;44.70;99866.28;4515298;31;34661;-94
2022/11/14 13:24:49;;;;;;;;;;;;;;;18.31;42.76;99851.84;4514295;31;34829;-94
2022/11/14 13:27:35;;;;;;;;;;;;;;;18.18;42.12;99851.97;4514720;31;33583;-91
2022/11/14 13:31:19;;;;;;;;;;;;;;;16.43;45.32;99861.22;4513980;31;34258;-94
2022/11/14 13:34:27;;;;;;;;;;;;;;;16.82;44.41;99849.91;4449626;32;34268;-89
2022/11/14 13:37:15;;;;;;;;;;;;;;;16.93;43.44;99847.25;4438728;32;34068;-88
2022/11/14 13:40:15;;;;;;;;;;;;;;;16.76;43.91;99847.28;4511648;31;34134;-93
2022/11/14 13:43:04;;;;;;;;;;;;;;;16.15;45.32;99844.66;4513595;31;34969;-87
2022/11/14 13:45:50;;;;;;;;;;;;;;;16.61;45.23;99840.28;4513405;31;35183;-86
2022/11/14 13:48:36;;;;;;;;;;;;;;;16.75;44.94;99838.56;4514866;31;34530;-89
2022/11/14 13:51:21;;;;;;;;;;;;;;;16.45;45.40;99834.19;4518505;31;33048;-87
2022/11/14 13:54:28;;;;;;;;;;;;;;;16.69;45.66;99828.06;4519107;31;34553;-93
2022/11/14 13:57:32;;;;;;;;;;;;;;;16.52;46.36;99829.84;4519799;31;33503;-90
2022/11/14 14:00:17;;;;;;;;;;;;;;;15.63;47.30;99832.31;4519969;31;34259;-89
2022/11/14 14:03:11;;;;;;;;;;;;;;;16.28;46.76;99828.06;4519871;31;33977;-86
2022/11/14 14:06:09;;;;;;;;;;;;;;;17.09;45.43;99833.25;4518703;31;34946;-87
2022/11/14 14:09:24;;;;;;;;;;;;;;;17.38;45.13;99820.00;4512772;31;34410;-93
2022/11/14 14:12:32;;;;;;;;;;;;;;;17.44;44.70;99827.00;4502256;31;34807;-87
2022/11/14 14:15:37;;;;;;;;;;;;;;;17.14;45.67;99831.47;4497607;31;34376;-87
2022/11/14 14:18:24;;;;;;;;;;;;;;;17.44;43.56;99829.62;4504266;31;34029;-94
2022/11/14 14:21:21;;;;;;;;;;;;;;;17.59;44.35;99836.53;4503065;31;34025;-95
2022/11/14 14:24:11;;;;;;;;;;;;;;;17.99;43.20;99831.94;4502704;31;33969;-90
2022/11/14 14:27:05;;;;;;;;;;;;;;;17.89;42.79;99820.66;4502747;31;34214;-88
2022/11/14 14:30:07;;;;;;;;;;;;;;;17.91;43.01;99826.75;4502887;31;34904;-86
2022/11/14 14:33:11;;;;;;;;;;;;;;;17.81;43.35;99811.97;4518080;31;35048;-94
2022/11/14 14:35:57;;;;;;;;;;;;;;;18.01;42.89;99811.84;4517648;31;34235;-88
2022/11/14 14:38:42;;;;;;;;;;;;;;;17.96;42.98;99817.13;4519044;31;34257;-95